createdAt,value
2017-12-11T00:01:02.521Z,15.80
2017-12-11T00:03:28.659Z,16.87
2017-12-11T00:05:54.748Z,23.33
2017-12-11T00:08:20.866Z,16.40
2017-12-11T00:10:46.968Z,16.30
2017-12-11T00:13:14.809Z,13.20
2017-12-11T00:15:42.690Z,14.67
2017-12-11T00:18:10.617Z,16.87
2017-12-11T00:20:38.494Z,14.37
2017-12-11T00:23:06.359Z,13.70
2017-12-11T00:25:34.208Z,11.47
2017-12-11T00:28:02.069Z,11.03
2017-12-11T00:30:29.968Z,18.83
2017-12-11T00:32:57.812Z,12.80
2017-12-11T00:35:25.669Z,12.50
2017-12-11T00:37:53.546Z,11.93
2017-12-11T00:40:21.400Z,9.40
2017-12-11T00:42:49.236Z,8.83
2017-12-11T00:45:17.101Z,10.60
2017-12-11T00:47:44.940Z,13.20
2017-12-11T00:50:12.805Z,11.47
2017-12-11T00:52:40.705Z,11.07
2017-12-11T00:55:08.568Z,14.43
2017-12-11T00:57:36.403Z,11.03
2017-12-11T01:00:04.288Z,14.43
2017-12-11T01:02:32.153Z,11.43
2017-12-11T01:05:00.033Z,14.03
2017-12-11T01:07:27.942Z,12.87
2017-12-11T01:09:55.800Z,10.03
2017-12-11T01:12:23.640Z,14.87
2017-12-11T01:14:49.774Z,6.97
2017-12-11T01:17:15.859Z,10.57
2017-12-11T01:19:41.953Z,10.43
2017-12-11T01:22:08.179Z,6.83
2017-12-11T01:24:34.296Z,8.33
2017-12-11T01:27:00.398Z,9.10
2017-12-11T01:29:26.539Z,15.13
2017-12-11T01:31:52.626Z,11.77
2017-12-11T01:34:18.729Z,7.47
2017-12-11T01:36:44.840Z,7.03
2017-12-11T01:39:10.959Z,8.57
2017-12-11T01:41:37.054Z,9.60
2017-12-11T01:44:03.193Z,6.03
2017-12-11T01:46:29.300Z,6.40
2017-12-11T01:48:57.132Z,5.60
2017-12-11T01:51:25.000Z,5.97
2017-12-11T01:53:52.845Z,7.80
2017-12-11T01:56:20.686Z,6.60
2017-12-11T01:58:48.579Z,5.40
2017-12-11T02:01:16.430Z,5.70
2017-12-11T02:03:44.300Z,6.23
2017-12-11T02:06:12.197Z,6.53
2017-12-11T02:08:40.054Z,7.73
2017-12-11T02:11:07.933Z,5.80
2017-12-11T02:13:35.802Z,6.07
2017-12-11T02:16:03.656Z,4.90
2017-12-11T02:18:31.517Z,7.03
2017-12-11T02:20:59.402Z,4.03
2017-12-11T02:23:27.305Z,4.67
2017-12-11T02:25:55.170Z,5.57
2017-12-11T02:28:23.057Z,6.40
2017-12-11T02:30:50.921Z,6.10
2017-12-11T02:33:18.753Z,4.10
2017-12-11T02:35:46.618Z,6.23
2017-12-11T02:38:14.471Z,5.40
2017-12-11T02:40:42.315Z,3.33
2017-12-11T02:43:10.219Z,8.33
2017-12-11T02:45:38.072Z,4.23
2017-12-11T02:48:05.914Z,4.67
2017-12-11T02:50:33.774Z,7.40
2017-12-11T02:53:01.634Z,3.90
2017-12-11T02:55:29.513Z,4.27
2017-12-11T02:57:57.407Z,4.00
2017-12-11T03:00:25.274Z,3.20
2017-12-11T03:02:53.123Z,5.07
2017-12-11T03:05:21.041Z,4.47
2017-12-11T03:07:48.946Z,4.03
2017-12-11T03:10:16.816Z,5.27
2017-12-11T03:12:44.722Z,5.47
2017-12-11T03:15:12.590Z,2.60
2017-12-11T03:17:40.472Z,7.17
2017-12-11T03:20:08.389Z,4.27
2017-12-11T03:22:36.245Z,3.57
2017-12-11T03:25:04.125Z,3.00
2017-12-11T03:27:32.184Z,9.30
2017-12-11T03:30:00.079Z,2.47
2017-12-11T03:32:27.932Z,3.33
2017-12-11T03:34:55.846Z,3.97
2017-12-11T03:37:23.703Z,9.60
2017-12-11T03:39:51.660Z,9.00
2017-12-11T03:42:19.524Z,6.23
2017-12-11T03:44:47.383Z,3.37
2017-12-11T03:47:15.330Z,5.43
2017-12-11T03:49:43.256Z,3.97
2017-12-11T03:52:11.150Z,2.30
2017-12-11T03:54:39.037Z,3.67
2017-12-11T03:57:06.925Z,2.87
2017-12-11T03:59:34.792Z,8.53
2017-12-11T04:02:02.657Z,4.03
2017-12-11T04:04:30.528Z,4.33
2017-12-11T04:06:58.526Z,4.70
2017-12-11T04:09:26.418Z,5.43
2017-12-11T04:11:54.272Z,3.60
2017-12-11T04:14:22.125Z,4.23
2017-12-11T04:16:49.980Z,4.43
2017-12-11T04:19:17.861Z,2.53
2017-12-11T04:21:45.708Z,3.53
2017-12-11T04:24:13.570Z,2.60
2017-12-11T04:26:41.490Z,2.23
2017-12-11T04:29:09.321Z,3.67
2017-12-11T04:31:37.179Z,2.10
2017-12-11T04:34:05.056Z,4.30
2017-12-11T04:36:32.987Z,3.43
2017-12-11T04:39:00.856Z,1.80
2017-12-11T04:41:28.728Z,5.13
2017-12-11T04:43:56.558Z,4.10
2017-12-11T04:46:24.383Z,5.90
2017-12-11T04:48:52.260Z,4.13
2017-12-11T04:51:20.107Z,4.30
2017-12-11T04:53:47.960Z,3.67
2017-12-11T04:56:15.816Z,4.30
2017-12-11T04:58:43.664Z,4.43
2017-12-11T05:01:11.506Z,3.27
2017-12-11T05:03:39.449Z,7.17
2017-12-11T05:06:07.286Z,7.03
2017-12-11T05:08:35.126Z,4.20
2017-12-11T05:11:02.995Z,9.63
2017-12-11T05:13:30.842Z,6.40
2017-12-11T05:15:58.717Z,4.10
2017-12-11T05:18:26.589Z,5.63
2017-12-11T05:20:54.420Z,3.07
2017-12-11T05:23:22.263Z,4.40
2017-12-11T05:25:50.150Z,5.17
2017-12-11T05:28:18.028Z,6.23
2017-12-11T05:30:49.424Z,10.63
2017-12-11T05:33:17.317Z,9.70
2017-12-11T05:35:45.146Z,4.47
2017-12-11T05:38:13.106Z,3.60
2017-12-11T05:40:40.976Z,5.50
2017-12-11T05:43:08.825Z,5.87
2017-12-11T05:45:36.679Z,4.70
2017-12-11T05:48:04.568Z,14.40
2017-12-11T05:50:32.463Z,4.27
2017-12-11T05:53:00.363Z,12.13
2017-12-11T05:55:28.265Z,4.73
2017-12-11T05:57:56.144Z,4.80
2017-12-11T06:00:23.990Z,5.60
2017-12-11T06:02:51.863Z,5.40
2017-12-11T06:05:19.714Z,8.63
2017-12-11T06:07:47.544Z,6.60
2017-12-11T06:10:15.409Z,5.97
2017-12-11T06:12:43.272Z,5.97
2017-12-11T06:15:11.137Z,6.80
2017-12-11T06:17:39.012Z,7.97
2017-12-11T06:20:06.875Z,6.60
2017-12-11T06:22:34.741Z,8.57
2017-12-11T06:25:02.631Z,7.57
2017-12-11T06:27:30.506Z,14.30
2017-12-11T06:29:58.419Z,10.40
2017-12-11T06:32:26.296Z,8.53
2017-12-11T06:34:54.182Z,8.30
2017-12-11T06:37:22.047Z,9.80
2017-12-11T06:39:49.976Z,8.40
2017-12-11T06:42:17.812Z,8.60
2017-12-11T06:44:45.652Z,6.40
2017-12-11T06:47:13.523Z,6.33
2017-12-11T06:49:41.539Z,7.60
2017-12-11T06:52:09.391Z,7.00
2017-12-11T06:54:37.288Z,6.80
2017-12-11T06:57:05.132Z,7.13
2017-12-11T06:59:32.980Z,7.67
2017-12-11T07:02:00.844Z,8.50
2017-12-11T07:04:28.708Z,8.57
2017-12-11T07:06:56.579Z,11.63
2017-12-11T07:09:24.461Z,11.90
2017-12-11T07:11:52.300Z,13.17
2017-12-11T07:14:20.143Z,10.77
2017-12-11T07:16:48.018Z,8.70
2017-12-11T07:19:15.852Z,9.90
2017-12-11T07:21:43.713Z,19.13
2017-12-11T07:24:11.611Z,21.33
2017-12-11T07:26:39.468Z,14.20
2017-12-11T07:29:07.316Z,12.57
2017-12-11T07:31:35.242Z,17.77
2017-12-11T07:34:03.107Z,14.60
2017-12-11T07:36:30.977Z,13.10
2017-12-11T07:38:58.883Z,12.80
2017-12-11T07:41:26.737Z,13.00
2017-12-11T07:43:54.583Z,14.60
2017-12-11T07:46:22.590Z,12.83
2017-12-11T07:48:50.442Z,12.43
2017-12-11T07:51:19.268Z,14.27
2017-12-11T07:53:47.128Z,13.43
2017-12-11T07:56:14.976Z,14.67
2017-12-11T07:58:42.820Z,22.03
2017-12-11T08:01:10.704Z,17.00
2017-12-11T08:03:38.531Z,23.83
2017-12-11T08:06:06.433Z,22.63
2017-12-11T08:08:34.363Z,16.50
2017-12-11T08:11:02.288Z,26.07
2017-12-11T08:13:31.327Z,19.47
2017-12-11T08:15:59.356Z,20.47
2017-12-11T08:18:27.201Z,15.23
2017-12-11T08:20:55.054Z,18.77
2017-12-11T08:23:22.927Z,19.30
2017-12-11T08:25:50.778Z,20.43
2017-12-11T08:28:18.617Z,21.77
2017-12-11T08:30:46.507Z,25.73
2017-12-11T08:33:14.417Z,21.63
2017-12-11T08:35:42.300Z,17.70
2017-12-11T08:38:10.252Z,21.13
2017-12-11T08:40:38.096Z,18.33
2017-12-11T08:43:05.954Z,19.23
2017-12-11T08:45:33.856Z,26.40
2017-12-11T08:48:01.790Z,25.53
2017-12-11T08:50:29.704Z,23.27
2017-12-11T08:52:57.588Z,26.33
2017-12-11T08:55:25.416Z,18.93
2017-12-11T08:57:53.275Z,21.60
2017-12-11T09:00:21.143Z,18.50
2017-12-11T09:02:49.030Z,20.50
2017-12-11T09:05:16.904Z,21.20
2017-12-11T09:07:44.780Z,21.33
2017-12-11T09:10:12.639Z,28.73
2017-12-11T09:12:39.100Z,20.50
2017-12-11T09:15:05.220Z,21.73
2017-12-11T09:17:33.062Z,23.17
2017-12-11T09:20:00.916Z,18.50
2017-12-11T09:22:28.835Z,18.43
2017-12-11T09:24:56.683Z,16.80
2017-12-11T09:27:24.537Z,16.93
2017-12-11T09:29:52.425Z,22.07
2017-12-11T09:32:20.295Z,25.60
2017-12-11T09:34:48.184Z,31.07
2017-12-11T09:37:16.079Z,24.40
2017-12-11T09:39:43.913Z,24.10
2017-12-11T09:42:11.778Z,20.77
2017-12-11T09:44:39.687Z,20.73
2017-12-11T09:47:07.598Z,22.20
2017-12-11T09:49:35.438Z,24.30
2017-12-11T09:52:03.311Z,22.37
2017-12-11T09:54:31.232Z,22.87
2017-12-11T09:56:59.394Z,20.30
2017-12-11T09:59:27.451Z,22.03
2017-12-11T10:01:55.304Z,20.40
2017-12-11T10:04:23.164Z,24.30
2017-12-11T10:06:52.577Z,28.60
2017-12-11T10:09:20.575Z,20.23
2017-12-11T10:11:48.445Z,21.97
2017-12-11T10:14:16.400Z,27.93
2017-12-11T10:16:44.279Z,23.23
2017-12-11T10:19:12.259Z,22.30
2017-12-11T10:21:40.153Z,20.70
2017-12-11T10:24:08.091Z,22.30
2017-12-11T10:26:36.068Z,21.40
2017-12-11T10:29:04.083Z,17.73
2017-12-11T10:31:31.942Z,24.00
2017-12-11T10:34:00.572Z,35.73
2017-12-11T10:36:29.988Z,19.73
2017-12-11T10:38:57.883Z,20.53
2017-12-11T10:41:25.838Z,23.13
2017-12-11T10:43:53.731Z,28.80
2017-12-11T10:46:21.666Z,22.67
2017-12-11T10:48:49.574Z,35.37
2017-12-11T10:51:17.469Z,19.70
2017-12-11T10:53:45.304Z,19.03
2017-12-11T10:56:13.953Z,22.30
2017-12-11T10:58:41.915Z,21.53
2017-12-11T11:01:09.829Z,26.40
2017-12-11T11:03:37.735Z,35.53
2017-12-11T11:06:05.675Z,34.80
2017-12-11T11:08:33.560Z,28.00
2017-12-11T11:11:01.861Z,25.07
2017-12-11T11:13:29.780Z,37.20
2017-12-11T11:15:57.745Z,25.47
2017-12-11T11:18:26.128Z,23.90
2017-12-11T11:20:54.085Z,23.73
2017-12-11T11:23:21.937Z,21.60
2017-12-11T11:25:49.801Z,23.20
2017-12-11T11:28:17.695Z,20.93
2017-12-11T11:30:45.639Z,24.13
2017-12-11T11:33:13.630Z,20.80
2017-12-11T11:35:41.600Z,26.33
2017-12-11T11:38:09.558Z,28.80
2017-12-11T11:40:37.545Z,32.60
2017-12-11T11:43:05.500Z,21.90
2017-12-11T11:45:33.346Z,29.17
2017-12-11T11:48:01.180Z,26.40
2017-12-11T11:50:29.106Z,22.40
2017-12-11T11:52:57.013Z,23.70
2017-12-11T11:55:24.880Z,23.70
2017-12-11T11:57:52.791Z,23.70
2017-12-11T12:00:20.646Z,28.00
2017-12-11T12:02:48.506Z,25.43
2017-12-11T12:05:16.374Z,21.77
2017-12-11T12:07:44.227Z,33.43
2017-12-11T12:10:12.102Z,37.13
2017-12-11T12:12:40.040Z,29.87
2017-12-11T12:15:07.934Z,29.57
2017-12-11T12:17:35.848Z,28.03
2017-12-11T12:20:03.780Z,26.73
2017-12-11T12:22:31.673Z,27.73
2017-12-11T12:24:59.548Z,31.27
2017-12-11T12:27:27.466Z,21.27
2017-12-11T12:29:55.321Z,21.40
2017-12-11T12:32:23.172Z,25.00
2017-12-11T12:34:51.030Z,26.07
2017-12-11T12:37:18.890Z,22.93
2017-12-11T12:39:46.769Z,24.70
2017-12-11T12:42:14.653Z,24.00
2017-12-11T12:44:43.546Z,23.40
2017-12-11T12:47:11.391Z,24.03
2017-12-11T12:49:39.272Z,26.10
2017-12-11T12:52:07.149Z,26.60
2017-12-11T12:54:35.055Z,22.40
2017-12-11T12:57:03.275Z,24.40
2017-12-11T12:59:31.227Z,31.20
2017-12-11T13:01:59.113Z,29.80
2017-12-11T13:04:27.001Z,31.43
2017-12-11T13:06:54.880Z,32.17
2017-12-11T13:09:23.098Z,31.23
2017-12-11T13:11:50.975Z,29.77
2017-12-11T13:14:18.820Z,27.70
2017-12-11T13:16:46.835Z,32.60
2017-12-11T13:19:14.763Z,29.10
2017-12-11T13:21:42.609Z,36.53
2017-12-11T13:24:10.509Z,36.13
2017-12-11T13:26:38.382Z,29.43
2017-12-11T13:29:06.236Z,29.53
2017-12-11T13:31:34.121Z,24.20
2017-12-11T13:34:00.263Z,25.50
2017-12-11T13:36:26.369Z,24.10
2017-12-11T13:38:52.919Z,31.53
2017-12-11T13:41:19.139Z,25.10
2017-12-11T13:43:45.909Z,27.53
2017-12-11T13:46:11.991Z,26.40
2017-12-11T13:48:38.123Z,24.53
2017-12-11T13:51:04.212Z,29.50
2017-12-11T13:53:30.303Z,32.83
2017-12-11T13:55:56.411Z,32.03
2017-12-11T13:58:23.242Z,28.23
2017-12-11T14:00:49.341Z,33.17
2017-12-11T14:03:15.499Z,28.57
2017-12-11T14:05:41.600Z,24.80
2017-12-11T14:08:07.681Z,30.13
2017-12-11T14:10:33.814Z,25.53
2017-12-11T14:12:59.934Z,27.40
2017-12-11T14:15:26.056Z,30.83
2017-12-11T14:17:52.195Z,24.43
2017-12-11T14:20:18.298Z,33.03
2017-12-11T14:22:45.137Z,38.17
2017-12-11T14:25:11.288Z,26.30
2017-12-11T14:27:37.401Z,24.53
2017-12-11T14:30:03.541Z,25.67
2017-12-11T14:32:29.719Z,26.17
2017-12-11T14:34:55.873Z,28.10
2017-12-11T14:37:21.986Z,31.70
2017-12-11T14:39:48.123Z,24.57
2017-12-11T14:42:15.131Z,26.97
2017-12-11T14:44:41.288Z,24.43
2017-12-11T14:47:07.409Z,24.00
2017-12-11T14:49:33.552Z,28.40
2017-12-11T14:51:59.701Z,32.60
2017-12-11T14:54:25.828Z,23.90
2017-12-11T14:56:51.958Z,30.00
2017-12-11T14:59:18.036Z,28.40
2017-12-11T15:01:44.957Z,23.97
2017-12-11T15:04:11.077Z,27.97
2017-12-11T15:06:37.174Z,28.73
2017-12-11T15:09:03.302Z,26.70
2017-12-11T15:11:29.449Z,26.80
2017-12-11T15:13:55.573Z,24.37
2017-12-11T15:16:22.039Z,24.53
2017-12-11T15:18:48.898Z,25.00
2017-12-11T15:21:15.777Z,29.97
2017-12-11T15:23:42.174Z,22.43
2017-12-11T15:26:08.274Z,24.53
2017-12-11T15:28:34.411Z,30.23
2017-12-11T15:31:00.677Z,29.57
2017-12-11T15:33:27.423Z,26.53
2017-12-11T15:35:53.550Z,23.07
2017-12-11T15:38:19.760Z,28.00
2017-12-11T15:40:46.624Z,28.80
2017-12-11T15:43:12.829Z,27.30
2017-12-11T15:45:38.978Z,27.13
2017-12-11T15:48:05.811Z,24.37
2017-12-11T15:50:31.941Z,24.00
2017-12-11T15:52:58.046Z,28.60
2017-12-11T15:55:24.278Z,29.93
2017-12-11T15:57:50.455Z,28.50
2017-12-11T16:00:16.546Z,24.10
2017-12-11T16:02:42.834Z,31.10
2017-12-11T16:05:09.966Z,31.23
2017-12-11T16:07:36.091Z,31.53
2017-12-11T16:10:02.248Z,32.53
2017-12-11T16:12:28.419Z,30.73
2017-12-11T16:14:54.612Z,31.77
2017-12-11T16:17:20.742Z,31.77
2017-12-11T16:19:46.834Z,30.30
2017-12-11T16:22:18.250Z,35.30
2017-12-11T16:24:44.417Z,30.87
2017-12-11T16:27:10.565Z,39.73
2017-12-11T16:29:36.688Z,36.90
2017-12-11T16:32:02.967Z,34.50
2017-12-11T16:34:29.138Z,41.10
2017-12-11T16:36:55.250Z,35.40
2017-12-11T16:39:22.217Z,43.90
2017-12-11T16:41:49.071Z,41.87
2017-12-11T16:44:16.025Z,40.53
2017-12-11T16:46:42.160Z,43.40
2017-12-11T16:49:08.321Z,48.97
2017-12-11T16:51:34.467Z,50.03
2017-12-11T16:54:00.665Z,45.60
2017-12-11T16:56:26.777Z,35.73
2017-12-11T16:58:52.898Z,40.00
2017-12-11T17:03:52.220Z,40.47
2017-12-11T17:06:18.393Z,38.70
2017-12-11T17:08:44.562Z,38.30
2017-12-11T17:11:25.906Z,39.70
2017-12-11T17:13:52.072Z,48.37
2017-12-11T17:16:18.283Z,47.93
2017-12-11T17:18:44.418Z,50.20
2017-12-11T17:21:14.541Z,49.77
2017-12-11T17:23:47.830Z,51.23
2017-12-11T17:26:14.227Z,39.20
2017-12-11T17:28:41.431Z,44.00
2017-12-11T17:31:08.311Z,45.97
2017-12-11T17:33:34.455Z,37.70
2017-12-11T17:36:00.702Z,37.10
2017-12-11T17:38:28.609Z,40.37
2017-12-11T17:40:56.505Z,43.53
2017-12-11T17:43:27.679Z,49.30
2017-12-11T17:45:55.747Z,46.73
2017-12-11T17:48:23.648Z,47.40
2017-12-11T17:50:51.554Z,37.90
2017-12-11T17:53:19.414Z,30.40
2017-12-11T17:55:47.323Z,33.57
2017-12-11T17:58:16.866Z,30.70
2017-12-11T18:00:44.757Z,33.90
2017-12-11T18:03:12.625Z,29.97
2017-12-11T18:05:40.534Z,29.77
2017-12-11T18:08:08.406Z,34.50
2017-12-11T18:10:36.291Z,33.43
2017-12-11T18:13:04.208Z,24.10
2017-12-11T18:15:32.132Z,25.40
2017-12-11T18:18:00.013Z,23.90
2017-12-11T18:20:27.927Z,19.57
2017-12-11T18:22:55.826Z,25.63
2017-12-11T18:25:23.805Z,24.07
2017-12-11T18:27:51.697Z,23.80
2017-12-11T18:30:19.549Z,28.83
2017-12-11T18:32:47.548Z,26.63
2017-12-11T18:35:15.450Z,25.77
2017-12-11T18:37:43.314Z,26.87
2017-12-11T18:40:11.212Z,25.30
2017-12-11T18:42:39.121Z,33.17
2017-12-11T18:45:07.022Z,31.90
2017-12-11T18:47:35.257Z,33.27
2017-12-11T18:50:03.256Z,26.63
2017-12-11T18:52:31.230Z,33.10
2017-12-11T18:54:59.214Z,27.80
2017-12-11T18:57:27.126Z,32.40
2017-12-11T18:59:55.018Z,36.47
2017-12-11T19:02:22.925Z,31.97
2017-12-11T19:04:51.965Z,29.53
2017-12-11T19:07:19.841Z,27.17
2017-12-11T19:09:47.715Z,34.17
2017-12-11T19:12:15.627Z,29.47
2017-12-11T19:14:43.474Z,39.10
2017-12-11T19:17:11.396Z,33.40
2017-12-11T19:19:39.271Z,35.90
2017-12-11T19:22:07.133Z,34.13
2017-12-11T19:24:35.103Z,35.27
2017-12-11T19:27:03.039Z,38.23
2017-12-11T19:29:30.918Z,31.93
2017-12-11T19:31:58.795Z,25.43
2017-12-11T19:34:26.718Z,25.40
2017-12-11T19:36:54.597Z,26.17
2017-12-11T19:39:22.454Z,21.20
2017-12-11T19:41:50.367Z,25.50
2017-12-11T19:44:18.522Z,32.90
2017-12-11T19:46:46.515Z,26.67
2017-12-11T19:49:14.545Z,23.77
2017-12-11T19:51:43.676Z,25.30
2017-12-11T19:54:15.799Z,27.73
2017-12-11T19:56:43.775Z,25.60
2017-12-11T19:59:11.638Z,26.80
2017-12-11T20:01:39.567Z,23.83
2017-12-11T20:04:07.449Z,23.50
2017-12-11T20:06:35.316Z,24.33
2017-12-11T20:09:03.259Z,32.93
2017-12-11T20:11:31.232Z,26.00
2017-12-11T20:13:59.154Z,22.80
2017-12-11T20:16:27.229Z,20.40
2017-12-11T20:18:55.066Z,25.10
2017-12-11T20:21:22.915Z,24.60
2017-12-11T20:23:50.917Z,32.90
2017-12-11T20:26:18.879Z,27.83
2017-12-11T20:28:46.728Z,26.97
2017-12-11T20:31:14.633Z,23.00
2017-12-11T20:33:42.650Z,24.33
2017-12-11T20:36:10.585Z,24.33
2017-12-11T20:38:38.477Z,20.13
2017-12-11T20:41:06.328Z,21.50
2017-12-11T20:43:34.226Z,21.73
2017-12-11T20:46:02.309Z,21.83
2017-12-11T20:48:30.263Z,17.97
2017-12-11T20:50:58.197Z,19.30
2017-12-11T20:53:26.153Z,22.17
2017-12-11T20:55:54.095Z,21.53
2017-12-11T20:58:21.948Z,21.10
2017-12-11T21:00:49.927Z,24.97
2017-12-11T21:03:17.813Z,21.50
2017-12-11T21:05:45.828Z,25.73
2017-12-11T21:08:13.742Z,25.13
2017-12-11T21:10:41.677Z,21.93
2017-12-11T21:13:09.619Z,22.83
2017-12-11T21:15:37.583Z,23.17
2017-12-11T21:18:05.571Z,19.77
2017-12-11T21:20:33.588Z,21.27
2017-12-11T21:23:01.624Z,21.33
2017-12-11T21:25:29.547Z,26.50
2017-12-11T21:27:59.278Z,22.10
2017-12-11T21:30:27.746Z,25.13
2017-12-11T21:32:55.736Z,23.63
2017-12-11T21:35:23.703Z,20.87
2017-12-11T21:37:51.712Z,22.00
2017-12-11T21:40:19.684Z,23.23
2017-12-11T21:42:47.558Z,27.43
2017-12-11T21:45:15.770Z,38.03
2017-12-11T21:47:44.098Z,26.30
2017-12-11T21:50:12.067Z,29.80
2017-12-11T21:52:40.061Z,23.63
2017-12-11T21:55:08.201Z,23.57
2017-12-11T21:57:36.086Z,28.10
2017-12-11T22:00:04.498Z,24.63
2017-12-11T22:02:32.745Z,22.00
2017-12-11T22:05:00.680Z,24.53
2017-12-11T22:07:28.617Z,22.17
2017-12-11T22:09:56.850Z,20.03
2017-12-11T22:12:24.772Z,22.77
2017-12-11T22:14:52.830Z,18.50
2017-12-11T22:17:20.738Z,25.33
2017-12-11T22:19:48.746Z,26.00
2017-12-11T22:22:17.701Z,21.27
2017-12-11T22:24:45.645Z,27.67
2017-12-11T22:27:13.566Z,23.70
2017-12-11T22:29:41.451Z,23.27
2017-12-11T22:32:09.399Z,23.47
2017-12-11T22:34:37.674Z,19.60
2017-12-11T22:37:05.569Z,24.70
2017-12-11T22:39:33.521Z,21.03
2017-12-11T22:42:01.409Z,18.90
2017-12-11T22:44:29.305Z,23.40
2017-12-11T22:46:57.220Z,21.33
2017-12-11T22:49:25.105Z,22.40
2017-12-11T22:51:53.035Z,24.80
2017-12-11T22:54:20.922Z,19.77
2017-12-11T22:56:48.825Z,50.53
2017-12-11T22:59:16.693Z,17.90
2017-12-11T23:01:44.613Z,16.53
2017-12-11T23:04:12.484Z,48.13
2017-12-11T23:06:41.329Z,18.40
2017-12-11T23:09:09.200Z,18.10
2017-12-11T23:11:37.076Z,26.80
2017-12-11T23:14:05.149Z,19.90
2017-12-11T23:16:33.173Z,25.33
2017-12-11T23:19:01.072Z,22.10
2017-12-11T23:21:28.949Z,29.17
2017-12-11T23:23:56.949Z,23.87
2017-12-11T23:26:24.810Z,21.00
2017-12-11T23:28:52.696Z,16.77
2017-12-11T23:31:21.625Z,17.07
2017-12-11T23:33:49.477Z,31.70
2017-12-11T23:36:17.387Z,21.50
2017-12-11T23:38:45.392Z,18.13
2017-12-11T23:41:13.278Z,16.17
2017-12-11T23:43:41.122Z,13.87
2017-12-11T23:46:09.108Z,14.80
2017-12-11T23:48:37.009Z,22.50
2017-12-11T23:51:04.865Z,15.90
2017-12-11T23:53:32.928Z,15.40
2017-12-11T23:56:00.776Z,14.10
2017-12-11T23:58:28.620Z,13.60
